sensor_id;sensor_type;location;lat;lon;timestamp;pressure;altitude;pressure_sealevel;temperature;humidity
13734;BME280;43298;52.560;13.508;2023-08-21T00:01:22;101382.09;;;20.94;100.00
13734;BME280;43298;52.560;13.508;2023-08-21T00:03:47;101383.13;;;20.91;100.00
13734;BME280;43298;52.560;13.508;2023-08-21T00:06:13;101378.19;;;20.87;100.00
13734;BME280;43298;52.560;13.508;2023-08-21T00:08:39;101381.41;;;20.79;100.00
13734;BME280;43298;52.560;13.508;2023-08-21T00:11:05;101362.50;;;20.74;100.00
13734;BME280;43298;52.560;13.508;2023-08-21T00:13:31;101371.78;;;20.67;100.00
13734;BME280;43298;52.560;13.508;2023-08-21T00:15:56;101368.66;;;20.62;100.00
13734;BME280;43298;52.560;13.508;2023-08-21T00:18:22;101368.66;;;20.62;100.00
13734;BME280;43298;52.560;13.508;2023-08-21T00:20:48;101364.56;;;20.58;100.00
13734;BME280;43298;52.560;13.508;2023-08-21T00:23:14;101368.03;;;20.58;100.00
13734;BME280;43298;52.560;13.508;2023-08-21T00:25:40;101366.69;;;20.53;100.00
13734;BME280;43298;52.560;13.508;2023-08-21T00:28:07;101365.22;;;20.49;100.00
13734;BME280;43298;52.560;13.508;2023-08-21T00:30:33;101362.00;;;20.45;100.00
13734;BME280;43298;52.560;13.508;2023-08-21T00:32:59;101359.38;;;20.45;100.00
13734;BME280;43298;52.560;13.508;2023-08-21T00:35:24;101361.38;;;20.42;100.00
13734;BME280;43298;52.560;13.508;2023-08-21T00:37:50;101366.03;;;20.38;100.00
13734;BME280;43298;52.560;13.508;2023-08-21T00:40:16;101356.06;;;20.31;100.00
13734;BME280;43298;52.560;13.508;2023-08-21T00:42:42;101352.34;;;20.33;100.00
13734;BME280;43298;52.560;13.508;2023-08-21T00:45:08;101353.31;;;20.32;100.00
13734;BME280;43298;52.560;13.508;2023-08-21T00:47:35;101352.59;;;20.30;100.00
13734;BME280;43298;52.560;13.508;2023-08-21T00:50:01;101357.63;;;20.33;100.00
13734;BME280;43298;52.560;13.508;2023-08-21T00:52:28;101349.03;;;20.31;100.00
13734;BME280;43298;52.560;13.508;2023-08-21T00:54:55;101359.53;;;20.31;100.00
13734;BME280;43298;52.560;13.508;2023-08-21T00:57:21;101353.44;;;20.31;100.00
13734;BME280;43298;52.560;13.508;2023-08-21T00:59:48;101351.66;;;20.31;100.00
13734;BME280;43298;52.560;13.508;2023-08-21T01:02:14;101351.75;;;20.30;100.00
13734;BME280;43298;52.560;13.508;2023-08-21T01:04:40;101349.13;;;20.30;100.00
13734;BME280;43298;52.560;13.508;2023-08-21T01:07:06;101350.31;;;20.26;100.00
13734;BME280;43298;52.560;13.508;2023-08-21T01:15:46;101349.34;;;20.27;100.00
13734;BME280;43298;52.560;13.508;2023-08-21T01:18:13;101346.00;;;20.25;100.00
13734;BME280;43298;52.560;13.508;2023-08-21T01:20:41;101348.63;;;20.25;100.00
13734;BME280;43298;52.560;13.508;2023-08-21T01:23:07;101347.78;;;20.24;100.00
13734;BME280;43298;52.560;13.508;2023-08-21T01:25:33;101345.88;;;20.26;100.00
13734;BME280;43298;52.560;13.508;2023-08-21T01:27:59;101349.34;;;20.27;100.00
13734;BME280;43298;52.560;13.508;2023-08-21T01:30:27;101335.38;;;20.26;100.00
13734;BME280;43298;52.560;13.508;2023-08-21T01:33:10;101339.78;;;20.26;100.00
13734;BME280;43298;52.560;13.508;2023-08-21T01:35:38;101335.16;;;20.29;100.00
13734;BME280;43298;52.560;13.508;2023-08-21T01:38:05;101335.66;;;20.34;100.00
13734;BME280;43298;52.560;13.508;2023-08-21T01:40:31;101332.81;;;20.37;100.00
13734;BME280;43298;52.560;13.508;2023-08-21T01:42:57;101326.28;;;20.43;100.00
13734;BME280;43298;52.560;13.508;2023-08-21T01:45:23;101324.38;;;20.45;100.00
13734;BME280;43298;52.560;13.508;2023-08-21T01:47:49;101322.38;;;20.48;100.00
13734;BME280;43298;52.560;13.508;2023-08-21T01:50:15;101321.69;;;20.57;100.00
13734;BME280;43298;52.560;13.508;2023-08-21T01:52:41;101312.16;;;20.67;100.00
13734;BME280;43298;52.560;13.508;2023-08-21T01:55:07;101305.34;;;20.65;100.00
13734;BME280;43298;52.560;13.508;2023-08-21T01:57:36;101300.25;;;20.75;100.00
13734;BME280;43298;52.560;13.508;2023-08-21T02:00:03;101295.94;;;20.74;100.00
13734;BME280;43298;52.560;13.508;2023-08-21T02:02:32;101299.16;;;20.77;100.00
13734;BME280;43298;52.560;13.508;2023-08-21T02:04:58;101308.59;;;20.80;100.00
13734;BME280;43298;52.560;13.508;2023-08-21T02:07:24;101303.97;;;20.83;100.00
13734;BME280;43298;52.560;13.508;2023-08-21T02:09:50;101302.78;;;20.87;100.00
13734;BME280;43298;52.560;13.508;2023-08-21T02:12:15;101301.53;;;20.93;100.00
13734;BME280;43298;52.560;13.508;2023-08-21T02:14:41;101298.44;;;20.99;100.00
13734;BME280;43298;52.560;13.508;2023-08-21T02:17:07;101298.81;;;21.05;100.00
13734;BME280;43298;52.560;13.508;2023-08-21T02:19:33;101300.13;;;21.11;100.00
13734;BME280;43298;52.560;13.508;2023-08-21T02:21:59;101298.13;;;21.14;100.00
13734;BME280;43298;52.560;13.508;2023-08-21T02:24:24;101299.16;;;21.12;100.00
13734;BME280;43298;52.560;13.508;2023-08-21T02:26:50;101295.22;;;21.06;100.00
13734;BME280;43298;52.560;13.508;2023-08-21T02:29:16;101295.81;;;20.99;100.00
13734;BME280;43298;52.560;13.508;2023-08-21T02:31:42;101304.78;;;20.96;100.00
13734;BME280;43298;52.560;13.508;2023-08-21T02:34:08;101308.22;;;20.97;100.00
13734;BME280;43298;52.560;13.508;2023-08-21T02:36:33;101304.63;;;20.98;100.00
13734;BME280;43298;52.560;13.508;2023-08-21T02:38:59;101309.78;;;20.99;100.00
13734;BME280;43298;52.560;13.508;2023-08-21T02:41:25;101313.38;;;20.98;100.00
13734;BME280;43298;52.560;13.508;2023-08-21T02:43:51;101304.28;;;21.02;100.00
13734;BME280;43298;52.560;13.508;2023-08-21T02:46:16;101312.56;;;21.09;100.00
13734;BME280;43298;52.560;13.508;2023-08-21T02:48:43;101310.41;;;21.14;100.00
13734;BME280;43298;52.560;13.508;2023-08-21T02:51:09;101307.69;;;21.15;100.00
13734;BME280;43298;52.560;13.508;2023-08-21T02:53:34;101309.69;;;21.12;100.00
13734;BME280;43298;52.560;13.508;2023-08-21T02:56:00;101309.34;;;21.16;100.00
13734;BME280;43298;52.560;13.508;2023-08-21T02:58:26;101312.59;;;21.20;100.00
13734;BME280;43298;52.560;13.508;2023-08-21T03:00:52;101319.41;;;21.22;100.00
13734;BME280;43298;52.560;13.508;2023-08-21T03:03:17;101322.63;;;21.26;100.00
13734;BME280;43298;52.560;13.508;2023-08-21T03:05:43;101334.84;;;21.27;100.00
13734;BME280;43298;52.560;13.508;2023-08-21T03:08:09;101327.19;;;21.24;100.00
13734;BME280;43298;52.560;13.508;2023-08-21T03:10:35;101327.28;;;21.22;100.00
13734;BME280;43298;52.560;13.508;2023-08-21T03:13:02;101321.31;;;21.20;100.00
13734;BME280;43298;52.560;13.508;2023-08-21T03:15:28;101318.56;;;21.22;100.00
13734;BME280;43298;52.560;13.508;2023-08-21T03:17:55;101318.09;;;21.17;100.00
13734;BME280;43298;52.560;13.508;2023-08-21T03:20:21;101320.72;;;21.17;100.00
13734;BME280;43298;52.560;13.508;2023-08-21T03:22:47;101316.66;;;21.13;100.00
13734;BME280;43298;52.560;13.508;2023-08-21T03:25:13;101322.13;;;21.10;100.00
13734;BME280;43298;52.560;13.508;2023-08-21T03:27:39;101315.22;;;21.09;100.00
13734;BME280;43298;52.560;13.508;2023-08-21T03:30:07;101309.22;;;21.07;100.00
13734;BME280;43298;52.560;13.508;2023-08-21T03:32:33;101302.97;;;21.08;100.00
13734;BME280;43298;52.560;13.508;2023-08-21T03:34:59;101301.09;;;21.10;100.00
13734;BME280;43298;52.560;13.508;2023-08-21T03:37:25;101309.94;;;21.09;100.00
13734;BME280;43298;52.560;13.508;2023-08-21T03:39:50;101296.41;;;21.02;100.00
13734;BME280;43298;52.560;13.508;2023-08-21T03:42:16;101303.69;;;20.99;100.00
13734;BME280;43298;52.560;13.508;2023-08-21T03:44:42;101302.97;;;20.97;100.00
13734;BME280;43298;52.560;13.508;2023-08-21T03:47:08;101315.03;;;20.99;100.00
13734;BME280;43298;52.560;13.508;2023-08-21T03:49:34;101309.41;;;20.93;100.00
13734;BME280;43298;52.560;13.508;2023-08-21T03:52:00;101307.53;;;20.95;100.00
13734;BME280;43298;52.560;13.508;2023-08-21T03:54:25;101303.06;;;20.95;100.00
13734;BME280;43298;52.560;13.508;2023-08-21T03:56:51;101312.78;;;20.95;100.00
13734;BME280;43298;52.560;13.508;2023-08-21T03:59:17;101312.78;;;20.95;100.00
13734;BME280;43298;52.560;13.508;2023-08-21T04:01:43;101318.16;;;20.93;100.00
13734;BME280;43298;52.560;13.508;2023-08-21T04:04:08;101314.88;;;20.90;100.00
13734;BME280;43298;52.560;13.508;2023-08-21T04:06:35;101315.72;;;20.90;100.00
13734;BME280;43298;52.560;13.508;2023-08-21T04:09:01;101312.78;;;20.95;100.00
13734;BME280;43298;52.560;13.508;2023-08-21T04:11:27;101322.81;;;21.01;100.00
13734;BME280;43298;52.560;13.508;2023-08-21T04:13:54;101322.81;;;21.01;100.00
13734;BME280;43298;52.560;13.508;2023-08-21T04:16:20;101329.78;;;21.02;100.00
13734;BME280;43298;52.560;13.508;2023-08-21T04:18:47;101329.28;;;21.08;100.00
13734;BME280;43298;52.560;13.508;2023-08-21T04:21:12;101327.41;;;21.10;100.00
13734;BME280;43298;52.560;13.508;2023-08-21T04:23:38;101321.28;;;21.09;100.00
13734;BME280;43298;52.560;13.508;2023-08-21T04:26:04;101325.72;;;21.09;100.00
13734;BME280;43298;52.560;13.508;2023-08-21T04:28:32;101326.31;;;21.12;100.00
13734;BME280;43298;52.560;13.508;2023-08-21T04:30:58;101325.00;;;21.18;100.00
13734;BME280;43298;52.560;13.508;2023-08-21T04:33:25;101330.91;;;21.21;100.00
13734;BME280;43298;52.560;13.508;2023-08-21T04:35:52;101327.53;;;21.19;100.00
13734;BME280;43298;52.560;13.508;2023-08-21T04:38:18;101335.66;;;21.16;100.00
13734;BME280;43298;52.560;13.508;2023-08-21T04:40:43;101334.56;;;21.19;100.00
13734;BME280;43298;52.560;13.508;2023-08-21T04:43:09;101335.53;;;21.18;100.00
13734;BME280;43298;52.560;13.508;2023-08-21T04:45:35;101341.16;;;21.24;100.00
13734;BME280;43298;52.560;13.508;2023-08-21T04:48:06;101342.38;;;21.31;100.00
13734;BME280;43298;52.560;13.508;2023-08-21T04:50:32;101340.59;;;21.32;100.00
13734;BME280;43298;52.560;13.508;2023-08-21T04:52:57;101344.78;;;21.34;100.00
13734;BME280;43298;52.560;13.508;2023-08-21T04:55:23;101347.16;;;21.37;100.00
13734;BME280;43298;52.560;13.508;2023-08-21T04:57:49;101332.25;;;21.49;100.00
13734;BME280;43298;52.560;13.508;2023-08-21T05:00:16;101346.25;;;21.60;100.00
13734;BME280;43298;52.560;13.508;2023-08-21T05:02:42;101344.56;;;21.70;100.00
13734;BME280;43298;52.560;13.508;2023-08-21T05:05:08;101350.81;;;21.80;100.00
13734;BME280;43298;52.560;13.508;2023-08-21T05:07:34;101368.44;;;21.91;100.00
13734;BME280;43298;52.560;13.508;2023-08-21T05:10:01;101361.44;;;22.01;100.00
13734;BME280;43298;52.560;13.508;2023-08-21T05:12:27;101368.53;;;22.11;100.00
13734;BME280;43298;52.560;13.508;2023-08-21T05:14:53;101372.56;;;22.26;100.00
13734;BME280;43298;52.560;13.508;2023-08-21T05:17:19;101376.50;;;22.32;100.00
13734;BME280;43298;52.560;13.508;2023-08-21T05:19:45;101389.19;;;22.38;100.00
13734;BME280;43298;52.560;13.508;2023-08-21T05:22:11;101386.91;;;22.44;100.00
13734;BME280;43298;52.560;13.508;2023-08-21T05:24:38;101392.06;;;22.46;100.00
13734;BME280;43298;52.560;13.508;2023-08-21T05:27:04;101391.72;;;22.50;100.00
13734;BME280;43298;52.560;13.508;2023-08-21T05:29:30;101390.19;;;22.48;100.00
13734;BME280;43298;52.560;13.508;2023-08-21T05:31:56;101392.81;;;22.48;100.00
13734;BME280;43298;52.560;13.508;2023-08-21T05:34:22;101398.53;;;22.53;100.00
13734;BME280;43298;52.560;13.508;2023-08-21T05:36:48;101392.41;;;22.52;100.00
13734;BME280;43298;52.560;13.508;2023-08-21T05:39:14;101396.88;;;22.52;100.00
13734;BME280;43298;52.560;13.508;2023-08-21T05:41:39;101400.94;;;22.56;100.00
13734;BME280;43298;52.560;13.508;2023-08-21T05:44:05;101396.91;;;22.72;100.00
13734;BME280;43298;52.560;13.508;2023-08-21T05:46:31;101403.13;;;22.82;100.00
13734;BME280;43298;52.560;13.508;2023-08-21T05:48:57;101398.13;;;23.00;100.00
13734;BME280;43298;52.560;13.508;2023-08-21T05:51:23;101411.50;;;23.19;100.00
13734;BME280;43298;52.560;13.508;2023-08-21T05:53:48;101406.38;;;23.38;100.00
13734;BME280;43298;52.560;13.508;2023-08-21T05:56:14;101412.97;;;23.53;100.00
13734;BME280;43298;52.560;13.508;2023-08-21T05:58:40;101419.94;;;23.54;100.00
13734;BME280;43298;52.560;13.508;2023-08-21T06:01:06;101425.69;;;23.59;100.00
13734;BME280;43298;52.560;13.508;2023-08-21T06:03:32;101428.06;;;23.62;100.00
13734;BME280;43298;52.560;13.508;2023-08-21T06:05:57;101426.31;;;23.72;100.00
13734;BME280;43298;52.560;13.508;2023-08-21T06:08:23;101429.13;;;23.60;100.00
13734;BME280;43298;52.560;13.508;2023-08-21T06:10:53;101429.47;;;23.66;100.00
13734;BME280;43298;52.560;13.508;2023-08-21T06:13:19;101431.94;;;23.88;100.00
13734;BME280;43298;52.560;13.508;2023-08-21T06:15:45;101438.31;;;24.06;100.00
13734;BME280;43298;52.560;13.508;2023-08-21T06:18:11;101439.34;;;24.15;100.00
13734;BME280;43298;52.560;13.508;2023-08-21T06:20:37;101435.91;;;23.94;100.00
13734;BME280;43298;52.560;13.508;2023-08-21T06:23:03;101438.97;;;23.78;100.00
13734;BME280;43298;52.560;13.508;2023-08-21T06:25:29;101435.16;;;23.92;100.00
13734;BME280;43298;52.560;13.508;2023-08-21T06:27:56;101438.28;;;23.97;100.00
13734;BME280;43298;52.560;13.508;2023-08-21T06:30:22;101445.59;;;24.14;100.00
13734;BME280;43298;52.560;13.508;2023-08-21T06:32:48;101450.22;;;24.31;100.00
13734;BME280;43298;52.560;13.508;2023-08-21T06:35:15;101460.47;;;24.15;100.00
13734;BME280;43298;52.560;13.508;2023-08-21T06:37:41;101459.03;;;24.01;100.00
13734;BME280;43298;52.560;13.508;2023-08-21T06:40:08;101457.34;;;24.30;100.00
13734;BME280;43298;52.560;13.508;2023-08-21T06:42:34;101460.78;;;24.21;100.00
13734;BME280;43298;52.560;13.508;2023-08-21T06:45:00;101458.44;;;23.98;100.00
13734;BME280;43298;52.560;13.508;2023-08-21T06:47:26;101466.03;;;23.91;100.00
13734;BME280;43298;52.560;13.508;2023-08-21T06:49:51;101462.75;;;23.99;100.00
13734;BME280;43298;52.560;13.508;2023-08-21T06:52:17;101461.72;;;24.11;100.00
13734;BME280;43298;52.560;13.508;2023-08-21T06:54:43;101461.19;;;24.17;100.00
13734;BME280;43298;52.560;13.508;2023-08-21T06:57:09;101466.19;;;24.20;100.00
13734;BME280;43298;52.560;13.508;2023-08-21T06:59:35;101458.97;;;25.29;100.00
13734;BME280;43298;52.560;13.508;2023-08-21T07:02:02;101468.72;;;25.94;100.00
13734;BME280;43298;52.560;13.508;2023-08-21T07:04:28;101494.84;;;26.35;100.00
13734;BME280;43298;52.560;13.508;2023-08-21T07:06:54;101495.50;;;26.74;100.00
13734;BME280;43298;52.560;13.508;2023-08-21T07:09:20;101495.28;;;26.85;100.00
13734;BME280;43298;52.560;13.508;2023-08-21T07:11:46;101490.56;;;27.41;100.00
13734;BME280;43298;52.560;13.508;2023-08-21T07:14:11;101495.22;;;26.40;100.00
13734;BME280;43298;52.560;13.508;2023-08-21T07:16:39;101484.88;;;26.74;100.00
13734;BME280;43298;52.560;13.508;2023-08-21T07:19:05;101500.44;;;26.86;100.00
13734;BME280;43298;52.560;13.508;2023-08-21T07:21:31;101498.91;;;27.11;100.00
13734;BME280;43298;52.560;13.508;2023-08-21T07:24:00;101499.97;;;27.35;100.00
13734;BME280;43298;52.560;13.508;2023-08-21T07:26:26;101502.16;;;26.60;100.00
13734;BME280;43298;52.560;13.508;2023-08-21T07:28:52;101508.19;;;26.80;100.00
13734;BME280;43298;52.560;13.508;2023-08-21T07:31:19;101505.28;;;26.46;100.00
13734;BME280;43298;52.560;13.508;2023-08-21T07:33:45;101513.88;;;26.21;100.00
13734;BME280;43298;52.560;13.508;2023-08-21T07:36:11;101496.69;;;26.25;100.00
13734;BME280;43298;52.560;13.508;2023-08-21T07:38:43;101503.59;;;26.09;100.00
13734;BME280;43298;52.560;13.508;2023-08-21T07:41:11;101525.56;;;26.38;100.00
13734;BME280;43298;52.560;13.508;2023-08-21T07:43:40;101526.81;;;26.34;100.00
13734;BME280;43298;52.560;13.508;2023-08-21T07:46:08;101540.00;;;26.26;100.00
13734;BME280;43298;52.560;13.508;2023-08-21T07:48:39;101536.06;;;26.30;100.00
13734;BME280;43298;52.560;13.508;2023-08-21T07:51:05;101551.91;;;26.85;100.00
13734;BME280;43298;52.560;13.508;2023-08-21T07:53:31;101553.59;;;27.04;100.00
13734;BME280;43298;52.560;13.508;2023-08-21T07:55:58;101555.75;;;26.64;100.00
13734;BME280;43298;52.560;13.508;2023-08-21T07:58:24;101549.00;;;26.79;100.00
13734;BME280;43298;52.560;13.508;2023-08-21T08:00:50;101559.50;;;26.98;100.00
13734;BME280;43298;52.560;13.508;2023-08-21T08:03:15;101552.16;;;26.65;100.00
13734;BME280;43298;52.560;13.508;2023-08-21T08:05:42;101547.81;;;26.27;100.00
13734;BME280;43298;52.560;13.508;2023-08-21T08:08:09;101560.56;;;26.51;100.00
13734;BME280;43298;52.560;13.508;2023-08-21T08:10:41;101567.47;;;27.25;100.00
13734;BME280;43298;52.560;13.508;2023-08-21T08:13:07;101578.19;;;27.06;100.00
13734;BME280;43298;52.560;13.508;2023-08-21T08:15:34;101586.84;;;26.81;100.00
13734;BME280;43298;52.560;13.508;2023-08-21T08:18:02;101588.50;;;26.45;100.00
13734;BME280;43298;52.560;13.508;2023-08-21T08:20:28;101596.56;;;26.53;100.00
13734;BME280;43298;52.560;13.508;2023-08-21T08:22:54;101591.66;;;26.68;100.00
13734;BME280;43298;52.560;13.508;2023-08-21T08:25:20;101583.88;;;26.47;100.00
13734;BME280;43298;52.560;13.508;2023-08-21T08:27:45;101588.09;;;26.40;100.00
13734;BME280;43298;52.560;13.508;2023-08-21T08:30:12;101581.50;;;26.54;100.00
13734;BME280;43298;52.560;13.508;2023-08-21T08:32:37;101588.69;;;26.71;100.00
13734;BME280;43298;52.560;13.508;2023-08-21T08:35:05;101590.06;;;26.75;100.00
13734;BME280;43298;52.560;13.508;2023-08-21T08:37:33;101594.66;;;26.82;100.00
13734;BME280;43298;52.560;13.508;2023-08-21T08:39:58;101589.00;;;26.68;100.00
13734;BME280;43298;52.560;13.508;2023-08-21T08:42:24;101593.28;;;26.32;100.00
13734;BME280;43298;52.560;13.508;2023-08-21T08:44:53;101602.25;;;26.12;100.00
13734;BME280;43298;52.560;13.508;2023-08-21T08:47:20;101592.44;;;26.32;100.00
13734;BME280;43298;52.560;13.508;2023-08-21T08:49:48;101606.63;;;26.69;100.00
13734;BME280;43298;52.560;13.508;2023-08-21T08:52:16;101619.56;;;27.53;100.00
13734;BME280;43298;52.560;13.508;2023-08-21T08:54:43;101637.97;;;27.99;100.00
13734;BME280;43298;52.560;13.508;2023-08-21T08:57:10;101645.22;;;27.89;100.00
13734;BME280;43298;52.560;13.508;2023-08-21T08:59:36;101642.72;;;27.87;100.00
13734;BME280;43298;52.560;13.508;2023-08-21T09:02:02;101661.59;;;28.63;100.00
13734;BME280;43298;52.560;13.508;2023-08-21T09:04:28;101666.91;;;28.19;96.41
13734;BME280;43298;52.560;13.508;2023-08-21T09:07:07;101665.13;;;27.75;93.60
13734;BME280;43298;52.560;13.508;2023-08-21T09:09:41;101668.88;;;27.82;92.54
13734;BME280;43298;52.560;13.508;2023-08-21T09:12:12;101670.00;;;27.80;89.14
13734;BME280;43298;52.560;13.508;2023-08-21T09:14:42;101656.00;;;28.48;84.09
13734;BME280;43298;52.560;13.508;2023-08-21T09:17:08;101656.50;;;29.11;85.40
13734;BME280;43298;52.560;13.508;2023-08-21T09:19:35;101656.28;;;29.38;82.32
13734;BME280;43298;52.560;13.508;2023-08-21T09:22:12;101658.88;;;29.71;78.42
13734;BME280;43298;52.560;13.508;2023-08-21T09:25:05;101659.69;;;29.72;69.79
13734;BME280;43298;52.560;13.508;2023-08-21T09:27:38;101661.47;;;29.55;68.33
13734;BME280;43298;52.560;13.508;2023-08-21T09:30:06;101665.78;;;29.40;65.01
13734;BME280;43298;52.560;13.508;2023-08-21T09:32:53;101662.50;;;29.54;67.06
13734;BME280;43298;52.560;13.508;2023-08-21T09:35:21;101664.75;;;30.31;70.25
13734;BME280;43298;52.560;13.508;2023-08-21T09:37:47;101656.84;;;29.57;69.00
13734;BME280;43298;52.560;13.508;2023-08-21T09:40:14;101667.22;;;29.68;68.62
13734;BME280;43298;52.560;13.508;2023-08-21T09:42:40;101662.81;;;29.51;73.85
13734;BME280;43298;52.560;13.508;2023-08-21T09:45:07;101659.56;;;29.24;71.44
13734;BME280;43298;52.560;13.508;2023-08-21T09:47:33;101654.06;;;28.84;72.47
13734;BME280;43298;52.560;13.508;2023-08-21T09:49:59;101650.72;;;28.90;76.64
13734;BME280;43298;52.560;13.508;2023-08-21T09:52:26;101652.44;;;28.65;78.53
13734;BME280;43298;52.560;13.508;2023-08-21T09:54:57;101653.44;;;28.98;80.19
13734;BME280;43298;52.560;13.508;2023-08-21T09:57:24;101654.00;;;29.09;77.26
13734;BME280;43298;52.560;13.508;2023-08-21T09:59:54;101657.88;;;30.12;77.67
13734;BME280;43298;52.560;13.508;2023-08-21T10:02:21;101646.88;;;29.91;76.25
13734;BME280;43298;52.560;13.508;2023-08-21T10:04:48;101642.16;;;29.53;76.91
13734;BME280;43298;52.560;13.508;2023-08-21T10:07:17;101638.22;;;28.82;78.80
13734;BME280;43298;52.560;13.508;2023-08-21T10:09:46;101642.09;;;29.29;77.20
13734;BME280;43298;52.560;13.508;2023-08-21T10:12:14;101639.03;;;30.14;75.72
13734;BME280;43298;52.560;13.508;2023-08-21T10:14:42;101647.50;;;29.53;72.13
13734;BME280;43298;52.560;13.508;2023-08-21T10:17:08;101649.88;;;29.80;75.18
13734;BME280;43298;52.560;13.508;2023-08-21T10:19:37;101646.25;;;29.81;72.90
13734;BME280;43298;52.560;13.508;2023-08-21T10:22:03;101647.56;;;30.49;72.52
13734;BME280;43298;52.560;13.508;2023-08-21T10:24:35;101656.06;;;29.97;75.73
13734;BME280;43298;52.560;13.508;2023-08-21T10:27:06;101651.25;;;29.92;69.81
13734;BME280;43298;52.560;13.508;2023-08-21T10:29:33;101655.63;;;29.44;75.84
13734;BME280;43298;52.560;13.508;2023-08-21T10:32:04;101648.72;;;30.15;74.45
13734;BME280;43298;52.560;13.508;2023-08-21T10:34:37;101649.06;;;30.04;75.91
13734;BME280;43298;52.560;13.508;2023-08-21T10:39:32;101647.59;;;29.28;73.70
13734;BME280;43298;52.560;13.508;2023-08-21T10:42:11;101656.09;;;28.64;74.14
13734;BME280;43298;52.560;13.508;2023-08-21T10:47:21;101653.53;;;28.80;80.46
13734;BME280;43298;52.560;13.508;2023-08-21T10:49:51;101653.09;;;28.41;78.38
13734;BME280;43298;52.560;13.508;2023-08-21T10:52:28;101653.81;;;28.77;80.03
13734;BME280;43298;52.560;13.508;2023-08-21T10:55:00;101650.41;;;29.26;75.67
13734;BME280;43298;52.560;13.508;2023-08-21T10:57:32;101657.44;;;29.35;74.09
13734;BME280;43298;52.560;13.508;2023-08-21T11:02:31;101653.69;;;30.66;73.11
13734;BME280;43298;52.560;13.508;2023-08-21T11:05:00;101648.00;;;30.61;69.53
13734;BME280;43298;52.560;13.508;2023-08-21T11:07:27;101659.53;;;29.65;71.67
13734;BME280;43298;52.560;13.508;2023-08-21T11:09:54;101664.56;;;30.08;70.57
13734;BME280;43298;52.560;13.508;2023-08-21T11:12:22;101665.59;;;29.99;71.97
13734;BME280;43298;52.560;13.508;2023-08-21T11:14:49;101666.28;;;30.25;73.25
13734;BME280;43298;52.560;13.508;2023-08-21T11:17:15;101669.91;;;30.40;73.29
13734;BME280;43298;52.560;13.508;2023-08-21T11:19:42;101659.88;;;29.70;72.86
13734;BME280;43298;52.560;13.508;2023-08-21T11:22:08;101658.19;;;28.78;74.29
13734;BME280;43298;52.560;13.508;2023-08-21T11:27:04;101659.50;;;29.08;78.08
13734;BME280;43298;52.560;13.508;2023-08-21T11:29:50;101655.94;;;28.99;79.51
13734;BME280;43298;52.560;13.508;2023-08-21T11:32:19;101653.78;;;28.95;80.19
13734;BME280;43298;52.560;13.508;2023-08-21T11:37:18;101656.38;;;28.87;82.20
13734;BME280;43298;52.560;13.508;2023-08-21T11:39:53;101656.78;;;29.00;80.91
13734;BME280;43298;52.560;13.508;2023-08-21T11:42:28;101648.66;;;28.76;78.96
13734;BME280;43298;52.560;13.508;2023-08-21T11:44:54;101657.72;;;29.24;80.18
13734;BME280;43298;52.560;13.508;2023-08-21T11:47:22;101644.06;;;29.27;82.89
13734;BME280;43298;52.560;13.508;2023-08-21T11:49:49;101645.84;;;29.03;78.20
13734;BME280;43298;52.560;13.508;2023-08-21T11:52:23;101642.22;;;29.85;76.11
13734;BME280;43298;52.560;13.508;2023-08-21T11:54:54;101639.91;;;30.22;78.41
13734;BME280;43298;52.560;13.508;2023-08-21T11:57:21;101649.63;;;29.50;78.39
13734;BME280;43298;52.560;13.508;2023-08-21T11:59:55;101647.00;;;28.75;80.13
13734;BME280;43298;52.560;13.508;2023-08-21T12:02:28;101657.31;;;29.45;83.38
13734;BME280;43298;52.560;13.508;2023-08-21T12:05:04;101647.59;;;28.94;80.96
13734;BME280;43298;52.560;13.508;2023-08-21T12:07:34;101651.59;;;28.98;85.70
13734;BME280;43298;52.560;13.508;2023-08-21T12:10:00;101648.13;;;28.64;84.20
13734;BME280;43298;52.560;13.508;2023-08-21T12:12:26;101648.31;;;28.71;81.98
13734;BME280;43298;52.560;13.508;2023-08-21T12:14:52;101650.78;;;28.64;84.19
13734;BME280;43298;52.560;13.508;2023-08-21T12:17:18;101648.63;;;28.67;80.38
13734;BME280;43298;52.560;13.508;2023-08-21T12:19:44;101650.56;;;28.91;80.94
13734;BME280;43298;52.560;13.508;2023-08-21T12:22:10;101651.50;;;29.08;83.10
13734;BME280;43298;52.560;13.508;2023-08-21T12:24:36;101658.09;;;28.96;82.37
13734;BME280;43298;52.560;13.508;2023-08-21T12:27:07;101645.66;;;28.71;79.67
13734;BME280;43298;52.560;13.508;2023-08-21T12:29:34;101646.56;;;28.87;82.55
13734;BME280;43298;52.560;13.508;2023-08-21T12:32:00;101643.59;;;29.40;80.84
13734;BME280;43298;52.560;13.508;2023-08-21T12:34:26;101641.38;;;29.11;74.91
13734;BME280;43298;52.560;13.508;2023-08-21T12:36:52;101643.28;;;29.01;76.45
13734;BME280;43298;52.560;13.508;2023-08-21T12:39:18;101635.19;;;30.40;75.88
13734;BME280;43298;52.560;13.508;2023-08-21T12:41:45;101641.25;;;30.89;71.99
13734;BME280;43298;52.560;13.508;2023-08-21T12:44:12;101637.31;;;30.69;74.36
13734;BME280;43298;52.560;13.508;2023-08-21T12:46:38;101632.16;;;30.51;69.30
13734;BME280;43298;52.560;13.508;2023-08-21T12:49:04;101635.38;;;31.63;68.05
13734;BME280;43298;52.560;13.508;2023-08-21T12:51:30;101631.72;;;31.86;69.43